sensor_id;sensor_type;location;lat;lon;timestamp;pressure;altitude;pressure_sealevel;temperature;humidity
34241;BME280;20503;50.200;19.508;2023-04-06T18:41:55;101692.88;;;0.62;100.00
34241;BME280;20503;50.200;19.508;2023-04-06T18:47:03;101698.77;;;0.67;100.00
34241;BME280;20503;50.200;19.508;2023-04-06T18:52:11;101699.13;;;0.62;100.00
34241;BME280;20503;50.200;19.508;2023-04-06T18:57:18;101697.05;;;0.55;100.00
34241;BME280;20503;50.200;19.508;2023-04-06T19:02:26;101686.03;;;0.58;100.00
34241;BME280;20503;50.200;19.508;2023-04-06T19:07:34;101679.66;;;0.59;100.00
34241;BME280;20503;50.200;19.508;2023-04-06T19:12:42;101676.97;;;0.59;100.00
34241;BME280;20503;50.200;19.508;2023-04-06T19:17:50;101673.29;;;0.60;100.00
34241;BME280;20503;50.200;19.508;2023-04-06T19:22:58;101672.68;;;0.67;100.00
34241;BME280;20503;50.200;19.508;2023-04-06T19:28:05;101665.32;;;0.69;100.00
34241;BME280;20503;50.200;19.508;2023-04-06T19:33:14;101660.92;;;0.68;100.00
34241;BME280;20503;50.200;19.508;2023-04-06T19:38:21;101664.60;;;0.67;100.00
34241;BME280;20503;50.200;19.508;2023-04-06T19:43:28;101656.41;;;0.69;100.00
34241;BME280;20503;50.200;19.508;2023-04-06T19:48:42;101663.50;;;0.70;100.00
34241;BME280;20503;50.200;19.508;2023-04-06T19:53:50;101649.05;;;0.71;100.00
34241;BME280;20503;50.200;19.508;2023-04-06T19:58:59;101659.82;;;0.71;100.00
34241;BME280;20503;50.200;19.508;2023-04-06T20:04:08;101659.10;;;0.69;100.00
34241;BME280;20503;50.200;19.508;2023-04-06T20:09:14;101652.98;;;0.67;100.00
34241;BME280;20503;50.200;19.508;2023-04-06T20:14:22;101656.77;;;0.64;100.00
34241;BME280;20503;50.200;19.508;2023-04-06T20:19:31;101647.60;;;0.67;100.00
34241;BME280;20503;50.200;19.508;2023-04-06T20:24:38;101650.52;;;0.64;100.00
34241;BME280;20503;50.200;19.508;2023-04-06T20:29:46;101646.47;;;0.69;100.00
34241;BME280;20503;50.200;19.508;2023-04-06T20:34:54;101633.88;;;0.70;100.00
34241;BME280;20503;50.200;19.508;2023-04-06T20:40:04;101629.21;;;0.72;100.00
34241;BME280;20503;50.200;19.508;2023-04-06T20:45:11;101627.87;;;0.66;100.00
34241;BME280;20503;50.200;19.508;2023-04-06T20:50:19;101627.00;;;0.66;100.00
34241;BME280;20503;50.200;19.508;2023-04-06T20:55:26;101623.09;;;0.70;100.00
34241;BME280;20503;50.200;19.508;2023-04-06T21:00:35;101627.76;;;0.68;100.00
34241;BME280;20503;50.200;19.508;2023-04-06T21:05:49;101617.70;;;0.70;100.00
34241;BME280;20503;50.200;19.508;2023-04-06T21:10:50;101616.48;;;0.74;100.00
34241;BME280;20503;50.200;19.508;2023-04-06T21:15:58;101616.48;;;0.63;100.00
34241;BME280;20503;50.200;19.508;2023-04-06T21:21:07;101608.16;;;0.66;100.00
34241;BME280;20503;50.200;19.508;2023-04-06T21:26:15;101604.24;;;0.70;100.00
34241;BME280;20503;50.200;19.508;2023-04-06T21:31:23;101600.82;;;0.68;100.00
34241;BME280;20503;50.200;19.508;2023-04-06T21:36:30;101605.70;;;0.74;100.00
34241;BME280;20503;50.200;19.508;2023-04-06T21:41:38;101597.15;;;0.69;100.00
34241;BME280;20503;50.200;19.508;2023-04-06T21:46:46;101593.48;;;0.70;100.00
34241;BME280;20503;50.200;19.508;2023-04-06T21:51:54;101589.41;;;0.75;100.00
34241;BME280;20503;50.200;19.508;2023-04-06T21:57:02;101586.59;;;0.77;100.00
34241;BME280;20503;50.200;19.508;2023-04-06T22:02:11;101581.09;;;0.78;100.00
34241;BME280;20503;50.200;19.508;2023-04-06T22:07:18;101576.67;;;0.77;100.00
34241;BME280;20503;50.200;19.508;2023-04-06T22:12:25;101579.23;;;0.79;100.00
34241;BME280;20503;50.200;19.508;2023-04-06T22:17:34;101568.71;;;0.76;100.00
34241;BME280;20503;50.200;19.508;2023-04-06T22:22:43;101569.44;;;0.78;100.00
34241;BME280;20503;50.200;19.508;2023-04-06T22:27:50;101575.55;;;0.80;100.00
34241;BME280;20503;50.200;19.508;2023-04-06T22:32:59;101568.08;;;0.83;100.00
34241;BME280;20503;50.200;19.508;2023-04-06T22:38:07;101567.24;;;0.83;100.00
34241;BME280;20503;50.200;19.508;2023-04-06T22:43:15;101559.89;;;0.85;100.00
34241;BME280;20503;50.200;19.508;2023-04-06T22:48:22;101545.91;;;0.80;100.00
34241;BME280;20503;50.200;19.508;2023-04-06T22:53:30;101554.98;;;0.79;100.00
34241;BME280;20503;50.200;19.508;2023-04-06T22:58:39;101551.08;;;0.83;100.00
34241;BME280;20503;50.200;19.508;2023-04-06T23:03:46;101544.82;;;0.82;100.00
34241;BME280;20503;50.200;19.508;2023-04-06T23:08:54;101543.73;;;0.85;100.00
34241;BME280;20503;50.200;19.508;2023-04-06T23:14:02;101536.48;;;0.85;100.00
34241;BME280;20503;50.200;19.508;2023-04-06T23:19:10;101530.62;;;0.80;100.00
34241;BME280;20503;50.200;19.508;2023-04-06T23:24:17;101530.25;;;0.85;100.00
34241;BME280;20503;50.200;19.508;2023-04-06T23:29:25;101522.39;;;0.82;100.00
34241;BME280;20503;50.200;19.508;2023-04-06T23:34:32;101524.98;;;0.83;100.00
34241;BME280;20503;50.200;19.508;2023-04-06T23:39:40;101515.30;;;0.81;100.00
34241;BME280;20503;50.200;19.508;2023-04-06T23:44:48;101504.93;;;0.76;100.00
34241;BME280;20503;50.200;19.508;2023-04-06T23:49:56;101497.70;;;0.77;100.00
34241;BME280;20503;50.200;19.508;2023-04-06T23:55:05;101490.22;;;0.80;100.00
